createdAt,value
2022-09-30T00:02:44.031Z,10.17
2022-09-30T00:08:14.978Z,10.16
2022-09-30T00:13:48.719Z,10.16
2022-09-30T00:19:19.889Z,10.15
2022-09-30T00:24:51.148Z,10.13
2022-09-30T00:30:22.281Z,10.12
2022-09-30T00:35:53.395Z,10.12
2022-09-30T00:41:25.355Z,10.10
2022-09-30T00:46:56.602Z,10.08
2022-09-30T00:52:28.399Z,10.06
2022-09-30T00:58:00.747Z,10.06
2022-09-30T01:03:34.548Z,10.05
2022-09-30T01:09:05.511Z,10.04
2022-09-30T01:14:38.017Z,10.02
2022-09-30T01:20:18.602Z,10.01
2022-09-30T01:26:01.588Z,10.01
2022-09-30T01:31:47.483Z,10.00
2022-09-30T01:37:21.413Z,9.99
2022-09-30T01:43:07.667Z,9.98
2022-09-30T01:48:54.000Z,9.95
2022-09-30T01:54:32.703Z,9.97
2022-09-30T02:00:07.949Z,9.94
2022-09-30T02:05:54.367Z,9.93
2022-09-30T02:11:28.082Z,9.92
2022-09-30T02:17:08.220Z,9.91
2022-09-30T02:22:50.826Z,9.90
2022-09-30T02:28:27.616Z,9.90
2022-09-30T02:34:07.073Z,9.89
2022-09-30T02:39:42.782Z,9.88
2022-09-30T02:45:17.176Z,9.88
2022-09-30T02:50:55.184Z,9.86
2022-09-30T02:56:46.896Z,9.85
2022-09-30T03:02:18.190Z,9.85
2022-09-30T03:07:49.100Z,9.83
2022-09-30T03:13:35.237Z,9.81
2022-09-30T03:19:37.257Z,9.81
2022-09-30T03:25:45.518Z,9.80
2022-09-30T03:31:16.535Z,9.77
2022-09-30T03:37:04.404Z,9.77
2022-09-30T03:42:38.775Z,9.76
2022-09-30T03:48:12.083Z,9.74
2022-09-30T03:53:44.337Z,9.73
2022-09-30T03:59:28.633Z,9.73
2022-09-30T04:04:59.764Z,9.73
2022-09-30T04:10:31.008Z,9.72
2022-09-30T04:16:02.266Z,9.72
2022-09-30T04:21:33.477Z,9.70
2022-09-30T04:27:04.520Z,9.71
2022-09-30T04:32:35.703Z,9.68
2022-09-30T04:38:07.607Z,9.67
2022-09-30T04:43:38.517Z,9.66
2022-09-30T04:49:09.756Z,9.66
2022-09-30T04:54:40.937Z,9.64
2022-09-30T05:00:12.720Z,9.65
2022-09-30T05:05:44.668Z,9.63
2022-09-30T05:11:18.665Z,9.63
2022-09-30T05:16:49.889Z,9.64
2022-09-30T05:22:20.758Z,9.63
2022-09-30T05:27:52.103Z,9.61
2022-09-30T05:33:23.431Z,9.63
2022-09-30T05:38:54.857Z,9.61
2022-09-30T05:44:26.101Z,9.60
2022-09-30T05:49:57.140Z,9.60
2022-09-30T05:55:28.282Z,9.60
2022-09-30T06:01:13.180Z,9.60
2022-09-30T06:06:44.466Z,9.60
2022-09-30T06:12:16.226Z,9.59
2022-09-30T06:17:55.237Z,9.61
2022-09-30T06:23:26.587Z,9.63
2022-09-30T06:28:57.917Z,9.65
2022-09-30T06:34:28.717Z,9.67
2022-09-30T06:39:59.662Z,9.69
2022-09-30T06:45:33.501Z,9.72
2022-09-30T06:51:04.782Z,9.74
2022-09-30T06:56:37.110Z,9.77
2022-09-30T07:02:11.430Z,9.81
2022-09-30T07:07:44.231Z,9.83
2022-09-30T07:13:14.983Z,9.85
2022-09-30T07:18:46.247Z,9.88
2022-09-30T07:24:18.089Z,9.92
2022-09-30T07:30:10.185Z,9.99
2022-09-30T07:35:40.342Z,10.03
2022-09-30T07:41:17.143Z,10.06
2022-09-30T07:46:48.240Z,10.07
2022-09-30T07:52:19.472Z,10.08
2022-09-30T07:57:50.739Z,10.11
2022-09-30T08:03:21.792Z,10.13
2022-09-30T08:08:55.289Z,10.17
2022-09-30T08:14:28.184Z,10.21
2022-09-30T08:19:59.414Z,10.24
2022-09-30T08:25:30.479Z,10.31
2022-09-30T08:31:10.676Z,10.34
2022-09-30T08:36:41.725Z,10.39
2022-09-30T08:42:49.650Z,10.44
2022-09-30T08:48:50.254Z,10.48
2022-09-30T08:54:25.044Z,10.55
2022-09-30T08:59:59.899Z,10.56
2022-09-30T09:06:09.097Z,10.60
2022-09-30T09:11:49.205Z,10.65
2022-09-30T09:18:22.676Z,10.69
2022-09-30T09:23:57.779Z,10.71
2022-09-30T09:29:53.960Z,10.78
2022-09-30T09:35:50.429Z,10.84
2022-09-30T09:41:39.377Z,10.92
2022-09-30T09:47:17.416Z,10.98
2022-09-30T09:53:07.058Z,11.03
2022-09-30T09:58:41.924Z,11.09
2022-09-30T10:04:27.555Z,11.15
2022-09-30T10:10:23.367Z,11.17
2022-09-30T10:15:57.859Z,11.24
2022-09-30T10:21:29.042Z,11.31
2022-09-30T10:27:00.165Z,11.33
2022-09-30T10:32:32.193Z,11.33
2022-09-30T10:38:03.519Z,11.39
2022-09-30T10:43:48.188Z,11.40
2022-09-30T10:49:22.352Z,11.41
2022-09-30T10:54:55.443Z,11.45
2022-09-30T11:00:27.926Z,11.45
2022-09-30T11:06:00.715Z,11.48
2022-09-30T11:11:55.597Z,11.49
2022-09-30T11:17:38.870Z,11.55
2022-09-30T11:23:29.984Z,11.57
2022-09-30T11:29:11.993Z,11.58
2022-09-30T11:34:52.108Z,11.57
2022-09-30T11:40:31.997Z,11.64
2022-09-30T11:46:23.450Z,11.68
2022-09-30T11:51:59.147Z,11.71
2022-09-30T11:57:41.546Z,11.73
2022-09-30T12:03:39.936Z,11.76
2022-09-30T12:09:25.183Z,11.80
2022-09-30T12:15:07.739Z,11.83
2022-09-30T12:20:44.861Z,11.89
2022-09-30T12:26:16.623Z,11.93
2022-09-30T12:31:52.029Z,11.99
2022-09-30T12:37:51.699Z,12.04
2022-09-30T12:44:06.819Z,12.08
2022-09-30T12:49:40.412Z,12.14
2022-09-30T12:55:28.247Z,12.19
2022-09-30T13:01:29.710Z,12.24
2022-09-30T13:07:01.082Z,12.29
2022-09-30T13:12:43.938Z,12.35
2022-09-30T13:18:21.145Z,12.40
2022-09-30T13:23:57.154Z,12.46
2022-09-30T13:29:35.397Z,12.52
2022-09-30T13:35:32.580Z,12.56
2022-09-30T13:41:12.282Z,12.59
2022-09-30T13:46:52.323Z,12.60
2022-09-30T13:52:32.981Z,12.61
2022-09-30T13:58:23.323Z,12.62
2022-09-30T14:04:23.546Z,12.64
2022-09-30T14:10:09.605Z,12.63
2022-09-30T14:16:19.327Z,12.61
2022-09-30T14:21:55.732Z,12.62
2022-09-30T14:27:45.748Z,12.64
2022-09-30T14:33:28.264Z,12.63
2022-09-30T14:39:00.829Z,12.63
2022-09-30T14:44:36.496Z,12.61
2022-09-30T14:50:31.636Z,12.56
2022-09-30T14:56:05.432Z,12.52
2022-09-30T15:01:37.835Z,12.46
2022-09-30T15:07:12.587Z,12.42
2022-09-30T15:12:43.900Z,12.39
2022-09-30T15:18:28.331Z,12.40
2022-09-30T15:24:02.973Z,12.43
2022-09-30T15:29:34.013Z,12.44
2022-09-30T15:35:20.887Z,12.47
2022-09-30T15:41:05.985Z,12.48
2022-09-30T15:46:40.098Z,12.44
2022-09-30T15:52:30.779Z,12.42
2022-09-30T15:58:02.885Z,12.39
2022-09-30T16:03:34.468Z,12.38
2022-09-30T16:09:18.693Z,12.36
2022-09-30T16:14:55.553Z,12.34
2022-09-30T16:20:27.069Z,12.34
2022-09-30T16:26:17.215Z,12.33
2022-09-30T16:31:50.563Z,12.32
2022-09-30T16:37:22.107Z,12.32
2022-09-30T16:42:55.098Z,12.29
2022-09-30T16:48:27.423Z,12.27
2022-09-30T16:53:58.715Z,12.27
2022-09-30T16:59:32.777Z,12.25
2022-09-30T17:05:04.715Z,12.23
2022-09-30T17:10:36.168Z,12.21
2022-09-30T17:16:07.407Z,12.19
2022-09-30T17:21:38.624Z,12.16
2022-09-30T17:27:09.957Z,12.13
2022-09-30T17:32:42.541Z,12.11
2022-09-30T17:38:14.017Z,12.07
2022-09-30T17:43:48.802Z,12.06
2022-09-30T17:49:23.993Z,12.05
2022-09-30T17:54:57.272Z,12.05
2022-09-30T18:00:28.983Z,12.04
2022-09-30T18:06:00.327Z,12.04
2022-09-30T18:11:31.895Z,12.01
2022-09-30T18:17:05.832Z,11.99
2022-09-30T18:22:37.164Z,11.97
2022-09-30T18:28:11.279Z,11.96
2022-09-30T18:33:42.668Z,11.94
2022-09-30T18:39:13.713Z,11.95
2022-09-30T18:44:44.904Z,11.93
2022-09-30T18:50:18.398Z,11.91
2022-09-30T18:55:49.836Z,11.91
2022-09-30T19:01:21.475Z,11.90
2022-09-30T19:06:52.945Z,11.90
2022-09-30T19:12:27.786Z,11.88
2022-09-30T19:18:00.127Z,11.87
2022-09-30T19:23:32.266Z,11.85
2022-09-30T19:29:07.889Z,11.85
2022-09-30T19:34:39.659Z,11.83
2022-09-30T19:40:20.906Z,11.82
2022-09-30T19:45:58.439Z,11.81
2022-09-30T19:51:31.280Z,11.80
2022-09-30T19:57:02.539Z,11.79
2022-09-30T20:02:35.263Z,11.77
2022-09-30T20:08:06.643Z,11.75
2022-09-30T20:13:38.296Z,11.72
2022-09-30T20:19:10.513Z,11.68
2022-09-30T20:24:42.024Z,11.64
2022-09-30T20:30:13.462Z,11.61
2022-09-30T20:35:44.705Z,11.58
2022-09-30T20:41:15.594Z,11.56
2022-09-30T20:46:46.568Z,11.54
2022-09-30T20:52:18.353Z,11.52
2022-09-30T20:57:49.659Z,11.50
2022-09-30T21:03:21.893Z,11.48
2022-09-30T21:08:53.814Z,11.45
2022-09-30T21:14:24.779Z,11.43
2022-09-30T21:19:56.200Z,11.40
2022-09-30T21:25:27.307Z,11.37
2022-09-30T21:30:59.128Z,11.34
2022-09-30T21:36:32.465Z,11.31
2022-09-30T21:42:03.969Z,11.27
2022-09-30T21:47:35.167Z,11.24
2022-09-30T21:53:06.189Z,11.19
2022-09-30T21:58:37.726Z,11.15
2022-09-30T22:04:09.447Z,11.08
2022-09-30T22:09:41.110Z,11.04
2022-09-30T22:15:12.081Z,11.02
2022-09-30T22:20:46.861Z,10.98
2022-09-30T22:26:19.613Z,10.97
2022-09-30T22:31:50.558Z,10.93
2022-09-30T22:37:40.787Z,10.92
2022-09-30T22:43:12.047Z,10.91
2022-09-30T22:48:44.498Z,10.86
2022-09-30T22:54:15.591Z,10.82
2022-09-30T22:59:47.799Z,10.81
2022-09-30T23:05:18.904Z,10.78
2022-09-30T23:10:50.107Z,10.74
2022-09-30T23:16:21.357Z,10.71
2022-09-30T23:21:52.915Z,10.67
2022-09-30T23:27:24.052Z,10.66
2022-09-30T23:32:55.777Z,10.63
2022-09-30T23:38:27.891Z,10.61
2022-09-30T23:43:59.318Z,10.57
2022-09-30T23:49:33.419Z,10.57
2022-09-30T23:55:04.730Z,10.55
